Time;durP1;ratioP1;P1;durP2;ratioP2;P2;SDS_P1;SDS_P2;PMS_P1;PMS_P2;Temp;Humidity;BMP_temperature;BMP_pressure;BME280_temperature;BME280_humidity;BME280_pressure;Samples;Min_cycle;Max_cycle;Signal;HPM_P1;HPM_P2
2024/01/12 00:00:23;;;;;;;13.83;8.67;;;3.70;55.40;;;;;;4994411;28;20186;-87
2024/01/12 00:02:49;;;;;;;18.23;8.90;;;3.70;55.40;;;;;;4993160;28;20221;-84
2024/01/12 00:05:15;;;;;;;18.17;10.20;;;3.80;55.40;;;;;;4996753;28;20195;-84
2024/01/12 00:07:41;;;;;;;22.37;11.83;;;3.80;55.40;;;;;;4999748;28;20225;-85
2024/01/12 00:10:08;;;;;;;27.30;14.33;;;3.80;55.30;;;;;;5003625;28;20201;-87
2024/01/12 00:12:34;;;;;;;37.27;14.47;;;3.70;55.10;;;;;;4993066;28;20655;-87
2024/01/12 00:15:00;;;;;;;34.20;16.63;;;3.80;55.10;;;;;;5003216;28;20190;-84
2024/01/12 00:17:26;;;;;;;39.40;18.27;;;3.70;55.10;;;;;;4997223;28;20194;-85
2024/01/12 00:19:51;;;;;;;39.77;19.30;;;3.70;55.10;;;;;;4993195;28;20190;-84
2024/01/12 00:22:17;;;;;;;44.07;19.47;;;3.70;55.10;;;;;;5023303;28;20191;-85
2024/01/12 00:24:43;;;;;;;44.97;20.43;;;3.70;55.10;;;;;;4994507;28;20561;-84
2024/01/12 00:27:08;;;;;;;41.43;17.83;;;3.60;55.00;;;;;;5021484;28;20214;-85
2024/01/12 00:29:34;;;;;;;39.80;17.00;;;3.70;55.20;;;;;;5011850;28;20179;-85
2024/01/12 00:31:59;;;;;;;43.20;18.03;;;3.80;55.10;;;;;;4983672;28;20194;-85
2024/01/12 00:34:25;;;;;;;34.43;15.63;;;3.70;55.10;;;;;;5012066;28;20579;-85
2024/01/12 00:36:53;;;;;;;33.53;15.97;;;3.70;55.10;;;;;;5009202;28;20190;-83
2024/01/12 00:39:19;;;;;;;30.13;15.20;;;3.70;55.20;;;;;;5017378;28;20193;-84
2024/01/12 00:41:45;;;;;;;22.83;12.80;;;3.70;55.00;;;;;;5008542;28;20187;-85
2024/01/12 00:44:10;;;;;;;29.97;13.87;;;3.70;55.00;;;;;;4994643;28;20226;-84
2024/01/12 00:46:36;;;;;;;22.03;12.30;;;3.70;55.00;;;;;;5007650;28;20189;-85
2024/01/12 00:49:02;;;;;;;21.50;11.83;;;3.60;55.00;;;;;;4990543;28;20653;-85
2024/01/12 00:51:28;;;;;;;23.87;12.30;;;3.70;55.20;;;;;;5012257;28;20715;-84
2024/01/12 00:53:53;;;;;;;21.77;11.73;;;3.70;55.10;;;;;;4995698;28;20249;-85
2024/01/12 00:56:19;;;;;;;18.63;10.53;;;3.60;54.80;;;;;;5011289;28;20718;-84
2024/01/12 00:58:45;;;;;;;22.83;10.97;;;3.60;54.80;;;;;;4991806;28;20190;-85
2024/01/12 01:01:10;;;;;;;17.37;9.83;;;3.60;55.00;;;;;;4990995;28;20194;-85
2024/01/12 01:03:37;;;;;;;15.50;8.70;;;3.60;54.90;;;;;;5022744;28;20189;-84
2024/01/12 01:06:03;;;;;;;14.50;8.57;;;3.60;55.00;;;;;;5000086;28;20186;-84
2024/01/12 01:08:29;;;;;;;17.83;9.30;;;3.60;54.90;;;;;;4997226;28;20534;-85
2024/01/12 01:10:54;;;;;;;15.27;9.17;;;3.60;54.70;;;;;;4997057;28;20182;-84
2024/01/12 01:13:20;;;;;;;15.40;8.47;;;3.60;54.70;;;;;;4998547;28;20190;-84
2024/01/12 01:15:46;;;;;;;16.90;9.13;;;3.50;54.50;;;;;;4992153;28;21223;-85
2024/01/12 01:18:12;;;;;;;15.27;8.30;;;3.40;54.60;;;;;;5010442;28;20213;-84
2024/01/12 01:20:38;;;;;;;16.60;8.63;;;3.40;54.70;;;;;;4993875;28;20223;-84
2024/01/12 01:23:05;;;;;;;18.83;9.50;;;3.50;54.70;;;;;;5007375;28;20268;-85
2024/01/12 01:25:31;;;;;;;17.90;9.33;;;3.40;54.50;;;;;;5011091;28;20187;-84
2024/01/12 01:27:56;;;;;;;16.87;8.07;;;3.40;54.50;;;;;;4979612;28;20272;-85
2024/01/12 01:30:22;;;;;;;14.50;9.17;;;3.40;54.50;;;;;;5019605;28;20189;-84
2024/01/12 01:32:48;;;;;;;17.47;8.47;;;3.40;54.40;;;;;;4991871;28;20197;-84
2024/01/12 01:35:15;;;;;;;16.47;8.87;;;3.30;54.20;;;;;;5011107;28;20187;-84
2024/01/12 01:37:40;;;;;;;19.23;10.80;;;3.30;54.10;;;;;;5007969;28;20336;-84
2024/01/12 01:40:07;;;;;;;22.70;10.33;;;3.20;54.00;;;;;;5010315;28;20265;-84
2024/01/12 01:42:33;;;;;;;12.00;8.37;;;3.20;54.10;;;;;;4994612;28;20587;-84
2024/01/12 01:44:59;;;;;;;15.90;9.00;;;3.20;54.80;;;;;;5022640;28;20591;-84
2024/01/12 01:47:26;;;;;;;11.03;7.60;;;3.20;54.10;;;;;;5005990;28;20264;-85
2024/01/12 01:49:52;;;;;;;15.53;7.40;;;3.20;54.00;;;;;;4992684;28;20191;-85
2024/01/12 01:52:20;;;;;;;11.37;7.50;;;3.10;54.00;;;;;;4993265;28;20178;-84
2024/01/12 01:54:46;;;;;;;11.60;7.10;;;3.10;54.10;;;;;;4990834;28;20321;-85
2024/01/12 01:57:12;;;;;;;11.87;6.60;;;3.10;54.00;;;;;;4992138;28;20191;-85
2024/01/12 01:59:39;;;;;;;12.53;7.07;;;3.10;53.90;;;;;;5012413;28;20196;-84
2024/01/12 02:02:05;;;;;;;11.13;6.57;;;3.10;53.90;;;;;;5000106;28;20199;-84
2024/01/12 02:04:31;;;;;;;12.43;7.30;;;3.10;53.80;;;;;;5012993;28;20240;-84
2024/01/12 02:06:56;;;;;;;13.60;7.70;;;3.10;53.70;;;;;;5014719;28;20702;-84
2024/01/12 02:09:23;;;;;;;12.70;6.83;;;3.00;53.60;;;;;;5015129;28;20182;-84
2024/01/12 02:11:49;;;;;;;10.83;7.17;;;3.00;53.70;;;;;;5009730;28;20194;-85
2024/01/12 02:14:15;;;;;;;10.67;6.63;;;3.00;53.60;;;;;;5013259;28;20256;-84
2024/01/12 02:16:41;;;;;;;10.07;6.33;;;2.90;53.30;;;;;;5023179;28;20197;-85
2024/01/12 02:19:06;;;;;;;13.47;8.37;;;2.80;53.40;;;;;;5000604;28;20646;-83
2024/01/12 02:21:32;;;;;;;14.37;8.17;;;2.80;53.50;;;;;;5020855;28;20178;-84
2024/01/12 02:23:58;;;;;;;14.37;7.33;;;2.80;53.50;;;;;;5013356;28;20190;-84
2024/01/12 02:26:23;;;;;;;14.83;7.50;;;2.80;53.40;;;;;;4994335;28;20196;-84
2024/01/12 02:28:49;;;;;;;11.47;7.10;;;2.70;53.30;;;;;;4994377;28;20226;-84
2024/01/12 02:31:16;;;;;;;12.70;7.37;;;2.80;53.50;;;;;;4995091;28;20189;-84
2024/01/12 02:33:41;;;;;;;9.97;6.70;;;2.70;53.30;;;;;;4992778;28;20182;-84
2024/01/12 02:36:07;;;;;;;13.13;7.50;;;2.70;53.30;;;;;;5015161;28;20197;-84
2024/01/12 02:38:33;;;;;;;11.40;6.73;;;2.70;53.00;;;;;;5014240;28;20181;-84
2024/01/12 02:40:59;;;;;;;11.17;6.50;;;2.70;53.00;;;;;;4996338;28;20281;-85
2024/01/12 02:43:24;;;;;;;13.77;7.00;;;2.60;52.80;;;;;;5011814;28;20232;-84
2024/01/12 02:45:50;;;;;;;9.90;6.63;;;2.60;52.70;;;;;;4997281;28;20233;-84
2024/01/12 02:48:16;;;;;;;9.43;6.03;;;2.50;52.60;;;;;;4997248;28;20221;-84
2024/01/12 02:50:41;;;;;;;11.60;5.63;;;2.50;52.70;;;;;;5013786;28;20198;-84
2024/01/12 02:53:07;;;;;;;9.03;5.37;;;2.50;52.70;;;;;;4993707;28;20217;-84
2024/01/12 02:55:33;;;;;;;13.40;6.67;;;2.40;52.50;;;;;;5007859;28;20175;-84
2024/01/12 02:57:58;;;;;;;11.63;5.80;;;2.40;52.50;;;;;;5006659;28;20192;-84
2024/01/12 03:00:24;;;;;;;7.53;5.47;;;2.30;52.30;;;;;;5013222;28;20190;-85
2024/01/12 03:02:50;;;;;;;9.73;6.03;;;2.40;52.30;;;;;;5008537;28;20186;-85
2024/01/12 03:05:15;;;;;;;10.93;6.03;;;2.20;52.00;;;;;;5000406;28;20222;-83
2024/01/12 03:07:41;;;;;;;12.70;7.13;;;2.10;52.10;;;;;;4992781;28;20255;-85
2024/01/12 03:10:07;;;;;;;10.60;6.87;;;2.20;52.20;;;;;;4993880;28;20178;-85
2024/01/12 03:12:32;;;;;;;11.90;7.27;;;2.00;52.00;;;;;;5002085;28;20258;-84
2024/01/12 03:14:58;;;;;;;10.57;6.70;;;1.90;51.90;;;;;;5013601;28;20181;-84
2024/01/12 03:17:24;;;;;;;10.10;7.00;;;1.90;51.80;;;;;;5009173;28;20240;-84
2024/01/12 03:19:49;;;;;;;10.03;7.40;;;1.80;51.70;;;;;;5010585;28;20362;-84
2024/01/12 03:22:15;;;;;;;12.57;7.43;;;1.70;51.80;;;;;;5013269;28;21084;-84
2024/01/12 03:24:40;;;;;;;12.43;8.17;;;1.70;51.80;;;;;;5012478;28;20207;-84
2024/01/12 03:27:06;;;;;;;11.20;7.63;;;1.60;51.80;;;;;;4994403;28;20329;-84
2024/01/12 03:29:31;;;;;;;12.93;8.67;;;1.50;51.60;;;;;;4989685;28;20186;-84
2024/01/12 03:31:57;;;;;;;10.80;7.60;;;1.50;51.50;;;;;;5015696;28;20195;-83
2024/01/12 03:34:23;;;;;;;11.03;7.80;;;1.50;51.60;;;;;;5012611;28;20642;-84
2024/01/12 03:36:48;;;;;;;13.53;7.87;;;1.40;51.60;;;;;;4994832;28;20189;-84
2024/01/12 03:39:14;;;;;;;11.43;7.73;;;1.30;51.50;;;;;;5018016;28;20212;-84
2024/01/12 03:41:40;;;;;;;11.33;6.90;;;1.30;51.30;;;;;;4997418;28;20201;-85
2024/01/12 03:44:05;;;;;;;12.70;7.63;;;1.20;51.30;;;;;;5004241;28;20600;-85
2024/01/12 03:46:31;;;;;;;9.63;6.70;;;1.10;51.20;;;;;;4993692;28;20190;-84
2024/01/12 03:48:57;;;;;;;12.40;7.40;;;1.10;51.20;;;;;;5004591;28;20240;-85
2024/01/12 03:51:22;;;;;;;11.57;7.13;;;1.10;51.30;;;;;;4987711;28;20187;-84
2024/01/12 03:53:48;;;;;;;12.80;7.37;;;1.00;51.20;;;;;;5010441;28;20194;-85
2024/01/12 03:56:13;;;;;;;10.63;7.27;;;1.00;51.00;;;;;;4991986;28;20205;-85
2024/01/12 03:58:39;;;;;;;14.13;7.33;;;0.90;50.90;;;;;;4993302;28;20677;-85
2024/01/12 04:01:07;;;;;;;11.97;7.77;;;1.00;51.00;;;;;;4994290;28;20192;-85
2024/01/12 04:03:33;;;;;;;11.87;8.00;;;0.80;50.80;;;;;;4992285;28;20637;-85
2024/01/12 04:05:59;;;;;;;11.23;6.90;;;0.80;50.80;;;;;;4994554;28;20190;-85
2024/01/12 04:08:24;;;;;;;14.27;7.33;;;0.70;50.60;;;;;;4995216;28;20216;-85
2024/01/12 04:10:50;;;;;;;11.97;7.97;;;0.60;50.40;;;;;;5007451;28;20192;-85
2024/01/12 04:13:16;;;;;;;10.50;7.33;;;0.60;50.60;;;;;;4992742;28;20203;-85
2024/01/12 04:15:42;;;;;;;11.97;7.17;;;0.60;50.70;;;;;;4987135;28;20183;-85
2024/01/12 04:18:08;;;;;;;13.03;7.27;;;0.50;50.50;;;;;;4993418;28;20183;-85
2024/01/12 04:20:34;;;;;;;12.37;8.00;;;0.50;50.40;;;;;;4990337;28;20178;-85
2024/01/12 04:22:59;;;;;;;13.83;8.73;;;0.40;50.30;;;;;;4992820;28;20942;-85
2024/01/12 04:25:25;;;;;;;13.13;9.10;;;0.50;50.40;;;;;;4983565;28;20291;-85
2024/01/12 04:27:50;;;;;;;17.00;9.17;;;0.40;50.40;;;;;;4994905;28;20310;-85
2024/01/12 04:30:16;;;;;;;13.17;9.13;;;0.40;50.60;;;;;;5010887;28;20180;-85
2024/01/12 04:32:42;;;;;;;15.37;9.57;;;0.40;50.70;;;;;;4993462;28;20274;-85
2024/01/12 04:35:07;;;;;;;14.70;8.97;;;0.40;50.60;;;;;;5005124;28;20522;-85
2024/01/12 04:37:33;;;;;;;13.57;8.43;;;0.40;50.40;;;;;;4989650;28;20192;-85
2024/01/12 04:39:58;;;;;;;14.30;9.10;;;0.40;50.50;;;;;;5008053;28;20649;-85
2024/01/12 04:42:24;;;;;;;14.93;9.20;;;0.30;50.40;;;;;;4989097;28;20195;-85
2024/01/12 04:44:50;;;;;;;16.27;8.97;;;0.40;50.40;;;;;;4989551;28;20290;-84
2024/01/12 04:47:15;;;;;;;17.30;9.67;;;0.30;50.50;;;;;;4996144;28;20214;-85
2024/01/12 04:49:41;;;;;;;16.50;9.93;;;0.30;50.40;;;;;;4999386;28;20231;-85
2024/01/12 04:52:06;;;;;;;15.77;9.67;;;0.30;50.30;;;;;;5012139;28;20239;-84
2024/01/12 04:54:32;;;;;;;15.17;8.93;;;0.30;50.30;;;;;;4993442;28;20179;-85
2024/01/12 04:56:58;;;;;;;14.67;8.90;;;0.30;50.10;;;;;;5010308;28;20196;-85
2024/01/12 04:59:23;;;;;;;18.40;8.67;;;0.30;50.30;;;;;;5009044;28;20189;-85
2024/01/12 05:01:49;;;;;;;20.17;9.57;;;0.40;50.50;;;;;;5010276;28;20200;-85
2024/01/12 05:04:15;;;;;;;15.67;8.53;;;0.40;50.70;;;;;;5020380;28;20212;-85
2024/01/12 05:06:40;;;;;;;18.03;9.20;;;0.40;50.70;;;;;;5000101;28;20226;-85
2024/01/12 05:09:06;;;;;;;14.33;8.77;;;0.50;50.70;;;;;;4991149;28;20533;-85
2024/01/12 05:11:32;;;;;;;17.10;9.20;;;0.50;50.60;;;;;;4991177;28;20189;-85
2024/01/12 05:13:58;;;;;;;15.40;8.57;;;0.50;50.50;;;;;;5010581;28;20188;-84
2024/01/12 05:16:23;;;;;;;18.77;8.80;;;0.50;50.30;;;;;;5007694;28;20188;-85
2024/01/12 05:18:49;;;;;;;19.90;9.30;;;0.50;50.10;;;;;;5011565;28;20189;-86
2024/01/12 05:21:15;;;;;;;14.37;8.40;;;0.40;50.10;;;;;;4991804;28;20184;-85
2024/01/12 05:23:44;;;;;;;14.67;7.37;;;0.40;50.20;;;;;;4996405;28;20197;-85
2024/01/12 05:26:10;;;;;;;14.37;8.03;;;0.50;50.30;;;;;;4993364;28;20692;-85
2024/01/12 05:28:35;;;;;;;16.00;7.73;;;0.40;50.40;;;;;;5009547;28;20212;-85
2024/01/12 05:31:01;;;;;;;17.77;8.80;;;0.50;50.50;;;;;;4993490;28;20714;-85
2024/01/12 05:33:26;;;;;;;17.90;8.10;;;0.50;50.30;;;;;;4991256;28;20198;-85
2024/01/12 05:35:52;;;;;;;16.13;8.27;;;0.50;50.40;;;;;;5004596;28;20631;-85
2024/01/12 05:38:17;;;;;;;15.30;9.10;;;0.60;50.40;;;;;;5009737;28;20184;-85
2024/01/12 05:40:43;;;;;;;16.93;9.23;;;0.60;50.30;;;;;;4994265;28;20267;-85
2024/01/12 05:43:09;;;;;;;20.60;10.67;;;0.60;50.20;;;;;;5010133;28;21571;-85
2024/01/12 05:45:34;;;;;;;20.40;10.67;;;0.70;50.40;;;;;;4999478;28;20230;-84
2024/01/12 05:48:00;;;;;;;20.47;11.07;;;0.60;50.40;;;;;;5010233;28;20266;-84
2024/01/12 05:50:26;;;;;;;20.70;11.70;;;0.60;50.50;;;;;;5012711;28;21604;-87
2024/01/12 05:52:51;;;;;;;22.00;10.80;;;0.70;50.50;;;;;;5008907;28;20214;-86
2024/01/12 05:55:17;;;;;;;19.93;10.77;;;0.70;50.30;;;;;;4993969;28;20184;-88
2024/01/12 05:57:43;;;;;;;18.70;10.60;;;0.70;50.30;;;;;;5010509;28;20191;-88
2024/01/12 06:00:09;;;;;;;18.93;10.30;;;0.70;50.50;;;;;;4993532;28;20280;-87
2024/01/12 06:02:35;;;;;;;16.93;10.80;;;0.70;50.40;;;;;;4989336;28;20229;-87
2024/01/12 06:05:00;;;;;;;21.23;10.80;;;0.80;50.50;;;;;;5011702;28;20260;-86
2024/01/12 06:07:26;;;;;;;18.87;10.40;;;0.80;50.50;;;;;;5011860;28;20209;-86
2024/01/12 06:09:53;;;;;;;16.57;9.60;;;0.90;50.60;;;;;;4993916;28;20192;-86
2024/01/12 06:12:19;;;;;;;15.50;9.33;;;1.10;50.50;;;;;;4993790;28;20188;-86
2024/01/12 06:14:44;;;;;;;20.80;10.23;;;1.00;50.20;;;;;;5012541;28;20563;-86
2024/01/12 06:17:10;;;;;;;15.13;9.53;;;1.00;50.00;;;;;;5000308;28;20189;-86
2024/01/12 06:19:36;;;;;;;16.03;9.60;;;1.10;50.20;;;;;;4986559;28;20192;-88
2024/01/12 06:22:01;;;;;;;17.23;10.03;;;1.00;50.00;;;;;;4973550;28;21096;-87
2024/01/12 06:24:27;;;;;;;19.33;10.97;;;1.00;49.80;;;;;;4986991;28;20187;-87
2024/01/12 06:26:52;;;;;;;15.00;9.77;;;1.10;50.10;;;;;;4997003;28;20656;-87
2024/01/12 06:29:18;;;;;;;13.03;8.30;;;1.00;50.10;;;;;;4989134;28;20241;-86
2024/01/12 06:31:44;;;;;;;17.23;9.03;;;1.00;50.20;;;;;;4998999;28;20177;-89
2024/01/12 06:34:09;;;;;;;15.07;8.80;;;1.10;50.10;;;;;;5009343;28;20188;-88
2024/01/12 06:36:41;;;;;;;17.90;9.07;;;1.20;50.10;;;;;;5017702;28;20649;-85
2024/01/12 06:39:08;;;;;;;15.97;9.03;;;1.10;49.90;;;;;;5008788;28;20683;-85
2024/01/12 06:41:34;;;;;;;17.30;8.73;;;1.00;49.80;;;;;;4986053;28;20194;-87
2024/01/12 06:43:59;;;;;;;14.00;8.77;;;1.10;50.00;;;;;;5007326;28;20193;-87
2024/01/12 06:46:25;;;;;;;15.87;9.23;;;1.10;50.10;;;;;;4992537;28;20884;-87
2024/01/12 06:48:51;;;;;;;19.60;10.57;;;1.20;50.10;;;;;;5008387;28;20236;-90
2024/01/12 06:51:23;;;;;;;18.80;10.20;;;1.20;50.00;;;;;;4993411;28;20190;-88
2024/01/12 06:53:48;;;;;;;15.10;8.67;;;1.20;49.80;;;;;;5008593;28;20216;-88
2024/01/12 06:56:21;;;;;;;15.47;9.80;;;1.30;49.90;;;;;;4993750;28;20216;-90
2024/01/12 06:58:46;;;;;;;16.80;9.33;;;1.10;49.70;;;;;;4988211;28;20200;-87
2024/01/12 07:01:12;;;;;;;19.63;9.70;;;1.00;49.70;;;;;;5009687;28;20262;-86
2024/01/12 07:03:38;;;;;;;17.10;8.83;;;1.00;49.80;;;;;;4993106;28;20252;-88
2024/01/12 07:06:04;;;;;;;14.73;9.47;;;1.00;49.90;;;;;;4992841;28;20194;-87
2024/01/12 07:08:29;;;;;;;17.60;9.73;;;0.90;49.80;;;;;;4994918;28;20217;-87
2024/01/12 07:10:55;;;;;;;15.73;10.20;;;0.90;50.60;;;;;;4991833;28;20205;-87
2024/01/12 07:13:20;;;;;;;16.13;9.30;;;1.00;50.50;;;;;;4993945;28;20189;-89
2024/01/12 07:15:46;;;;;;;15.97;9.90;;;1.00;50.40;;;;;;4991778;28;20178;-86
2024/01/12 07:18:12;;;;;;;17.17;8.93;;;1.20;50.60;;;;;;4994371;28;20235;-87
2024/01/12 07:20:37;;;;;;;16.33;9.73;;;1.10;50.50;;;;;;4993981;28;20220;-86
2024/01/12 07:23:03;;;;;;;16.93;8.93;;;1.20;50.60;;;;;;4993683;28;20809;-86
2024/01/12 07:25:29;;;;;;;16.23;9.13;;;1.20;50.40;;;;;;5009745;28;20234;-87
2024/01/12 07:27:55;;;;;;;17.50;9.20;;;1.30;50.40;;;;;;4992553;28;20303;-86
2024/01/12 07:30:21;;;;;;;19.23;10.00;;;1.30;50.40;;;;;;4992132;28;20596;-85
2024/01/12 07:32:46;;;;;;;18.70;10.00;;;1.30;50.30;;;;;;5007068;28;20194;-86
2024/01/12 07:35:12;;;;;;;19.67;10.90;;;1.30;50.30;;;;;;4999759;28;20323;-84
2024/01/12 07:37:38;;;;;;;17.60;10.97;;;1.30;50.40;;;;;;5009977;28;20617;-84
2024/01/12 07:40:04;;;;;;;20.17;10.63;;;1.30;50.20;;;;;;4990711;28;20191;-83
2024/01/12 07:42:30;;;;;;;21.37;10.73;;;1.30;50.60;;;;;;5007615;28;20189;-83
2024/01/12 07:44:56;;;;;;;18.53;10.53;;;1.30;50.30;;;;;;4996780;28;20235;-83
2024/01/12 07:47:22;;;;;;;18.67;11.00;;;1.40;50.30;;;;;;5007076;28;20217;-84
2024/01/12 07:49:48;;;;;;;22.37;10.33;;;1.40;50.30;;;;;;4992310;28;20193;-83
2024/01/12 07:52:14;;;;;;;19.40;10.43;;;1.40;50.30;;;;;;4990769;28;20243;-84
2024/01/12 07:54:40;;;;;;;16.13;9.23;;;1.50;50.50;;;;;;4990669;28;20653;-84
2024/01/12 07:57:06;;;;;;;17.20;10.37;;;1.50;50.40;;;;;;4989377;28;20287;-83
2024/01/12 07:59:32;;;;;;;16.83;10.47;;;1.50;50.30;;;;;;5005593;28;20199;-84
2024/01/12 08:01:58;;;;;;;17.53;9.93;;;1.60;50.50;;;;;;5012716;28;20183;-84
2024/01/12 08:04:24;;;;;;;21.77;12.17;;;1.60;50.50;;;;;;5008010;28;20204;-83
2024/01/12 08:06:49;;;;;;;25.00;12.57;;;1.70;50.50;;;;;;4990860;28;20192;-83
2024/01/12 08:09:15;;;;;;;22.87;11.93;;;1.70;50.40;;;;;;5003162;28;20637;-84
2024/01/12 08:11:40;;;;;;;23.20;11.67;;;1.70;50.30;;;;;;4991557;28;20201;-83
2024/01/12 08:14:06;;;;;;;23.27;12.07;;;1.70;50.20;;;;;;4988747;28;20182;-84
2024/01/12 08:16:32;;;;;;;21.50;11.87;;;1.70;50.40;;;;;;5011990;28;20184;-84
2024/01/12 08:18:58;;;;;;;23.57;12.80;;;1.70;50.60;;;;;;4994668;28;20196;-84
2024/01/12 08:21:24;;;;;;;20.20;12.47;;;1.80;50.70;;;;;;5009384;28;20193;-84
2024/01/12 08:23:50;;;;;;;24.30;13.40;;;1.80;50.70;;;;;;4991583;28;20196;-85
2024/01/12 08:26:15;;;;;;;26.40;14.97;;;1.80;50.70;;;;;;4997105;28;20180;-84
2024/01/12 08:28:41;;;;;;;23.73;14.17;;;1.90;50.80;;;;;;4982716;28;20218;-84
2024/01/12 08:31:06;;;;;;;28.30;16.53;;;1.90;50.70;;;;;;5005747;28;20214;-83
2024/01/12 08:33:32;;;;;;;28.43;16.00;;;1.90;50.80;;;;;;4993936;28;20196;-84
2024/01/12 08:35:57;;;;;;;31.13;16.97;;;2.00;50.80;;;;;;4992929;28;20183;-84
2024/01/12 08:38:23;;;;;;;31.33;16.80;;;2.00;50.80;;;;;;5008408;28;20190;-84
2024/01/12 08:40:49;;;;;;;29.97;16.63;;;2.00;50.70;;;;;;5007082;28;20208;-84
2024/01/12 08:43:16;;;;;;;29.53;17.07;;;2.00;50.70;;;;;;5009731;28;20180;-84
2024/01/12 08:45:42;;;;;;;28.47;17.13;;;2.00;50.60;;;;;;5006720;28;20221;-85
2024/01/12 08:48:08;;;;;;;27.50;17.17;;;2.10;50.60;;;;;;5007421;28;20228;-85
2024/01/12 08:50:34;;;;;;;29.87;17.00;;;2.00;50.50;;;;;;4990108;28;20186;-85
2024/01/12 08:52:59;;;;;;;32.27;17.03;;;2.00;50.60;;;;;;5008242;28;20198;-84
2024/01/12 08:55:25;;;;;;;28.90;16.90;;;2.00;50.70;;;;;;4991099;28;20191;-85
2024/01/12 08:57:52;;;;;;;29.03;17.03;;;2.00;50.70;;;;;;5007174;28;20189;-85
2024/01/12 09:00:18;;;;;;;29.77;17.60;;;2.10;50.90;;;;;;4990546;28;20198;-84
2024/01/12 09:02:43;;;;;;;31.57;18.43;;;2.10;50.90;;;;;;4997035;28;20189;-84
2024/01/12 09:05:10;;;;;;;34.40;19.00;;;2.10;50.70;;;;;;4990483;28;20256;-85
2024/01/12 09:07:36;;;;;;;33.47;19.20;;;2.10;50.70;;;;;;4989675;28;20215;-84
2024/01/12 09:10:02;;;;;;;32.37;20.23;;;2.10;50.60;;;;;;4990517;28;20192;-84
2024/01/12 09:12:28;;;;;;;33.70;21.87;;;2.00;50.40;;;;;;5006870;28;20188;-84
2024/01/12 09:14:54;;;;;;;38.17;20.77;;;2.00;50.70;;;;;;5005069;28;20554;-85
2024/01/12 09:17:19;;;;;;;39.30;22.10;;;2.10;51.60;;;;;;4997642;28;20225;-84
2024/01/12 09:19:45;;;;;;;34.80;20.27;;;2.10;51.10;;;;;;4988009;28;20242;-84
2024/01/12 09:22:12;;;;;;;34.17;19.03;;;2.20;51.20;;;;;;5006085;28;21447;-85
2024/01/12 09:24:37;;;;;;;34.27;19.60;;;2.20;51.20;;;;;;4991925;28;20244;-85
2024/01/12 09:27:03;;;;;;;38.13;20.73;;;2.20;50.90;;;;;;4988437;28;20616;-84
2024/01/12 09:29:29;;;;;;;34.20;21.00;;;2.20;50.90;;;;;;4988176;28;20185;-84
2024/01/12 09:31:54;;;;;;;33.27;20.17;;;2.30;50.90;;;;;;5000953;28;20230;-84
2024/01/12 09:34:20;;;;;;;31.23;18.23;;;2.30;50.90;;;;;;4998498;28;20194;-83
2024/01/12 09:36:45;;;;;;;32.13;18.30;;;2.30;50.80;;;;;;4983598;28;20236;-84
2024/01/12 09:39:14;;;;;;;31.57;18.27;;;2.30;51.00;;;;;;4994429;28;20198;-84
2024/01/12 09:41:49;;;;;;;33.83;16.90;;;2.20;50.70;;;;;;4983347;28;20949;-84
2024/01/12 09:44:20;;;;;;;23.70;14.57;;;2.30;50.80;;;;;;4998198;28;20707;-83
2024/01/12 09:46:57;;;;;;;21.73;14.07;;;2.30;50.80;;;;;;4999954;28;20917;-84
2024/01/12 09:49:24;;;;;;;26.60;13.87;;;2.40;51.00;;;;;;5000856;28;20285;-84
2024/01/12 09:51:50;;;;;;;23.13;13.57;;;2.40;50.60;;;;;;5013385;28;20190;-83
2024/01/12 09:54:16;;;;;;;22.63;12.80;;;2.30;50.30;;;;;;5016517;28;20192;-83
2024/01/12 09:56:44;;;;;;;19.80;11.80;;;2.30;50.40;;;;;;4989742;28;20186;-83
2024/01/12 09:59:10;;;;;;;17.83;11.07;;;2.30;50.40;;;;;;5006799;28;20666;-84
2024/01/12 10:01:37;;;;;;;20.60;11.30;;;2.30;50.10;;;;;;5005027;28;20193;-83
2024/01/12 10:04:02;;;;;;;19.63;11.93;;;2.30;50.10;;;;;;5001071;28;20905;-84
2024/01/12 10:06:28;;;;;;;17.00;11.03;;;2.30;50.00;;;;;;4981926;28;20194;-84
2024/01/12 10:08:54;;;;;;;17.17;11.60;;;2.30;50.00;;;;;;4993910;28;20215;-84
2024/01/12 10:11:19;;;;;;;19.50;10.50;;;2.30;50.60;;;;;;4982911;28;20697;-83
2024/01/12 10:13:45;;;;;;;17.30;9.40;;;2.30;49.90;;;;;;4980670;28;20186;-84
2024/01/12 10:16:11;;;;;;;15.80;9.43;;;2.30;49.60;;;;;;4982387;28;20609;-84
2024/01/12 10:18:36;;;;;;;16.73;9.33;;;2.40;49.70;;;;;;4999135;28;20712;-83
2024/01/12 10:21:02;;;;;;;16.03;9.60;;;2.40;49.90;;;;;;4985742;28;20284;-83
2024/01/12 10:23:28;;;;;;;16.97;9.50;;;2.50;49.90;;;;;;4985996;28;20184;-83
2024/01/12 10:26:00;;;;;;;13.77;8.83;;;2.50;49.60;;;;;;4980488;28;20592;-84
2024/01/12 10:28:30;;;;;;;15.90;8.97;;;2.40;49.20;;;;;;5006731;28;20229;-84
2024/01/12 10:30:56;;;;;;;14.33;8.97;;;2.40;49.20;;;;;;4990296;28;20228;-85
2024/01/12 10:33:22;;;;;;;14.27;8.40;;;2.40;49.40;;;;;;4992497;28;20190;-85
2024/01/12 10:35:57;;;;;;;11.77;7.80;;;2.40;49.30;;;;;;5003935;28;20285;-84
2024/01/12 10:38:23;;;;;;;16.13;8.53;;;2.30;49.20;;;;;;5007795;28;20192;-85
2024/01/12 10:40:50;;;;;;;17.17;8.37;;;2.30;49.50;;;;;;5004109;28;20216;-85
2024/01/12 10:43:17;;;;;;;13.30;8.40;;;2.30;49.10;;;;;;5003138;28;20198;-85
2024/01/12 10:45:49;;;;;;;13.93;7.20;;;2.50;49.30;;;;;;5002376;28;20237;-84
2024/01/12 10:48:20;;;;;;;13.20;7.70;;;2.30;49.00;;;;;;5005645;28;20221;-85
2024/01/12 10:50:50;;;;;;;11.50;7.63;;;2.30;49.10;;;;;;5005660;28;20186;-85
2024/01/12 10:53:28;;;;;;;12.63;6.97;;;2.30;49.50;;;;;;4987365;28;20196;-85
2024/01/12 10:55:58;;;;;;;13.17;7.93;;;2.40;49.60;;;;;;5005347;28;20187;-85
2024/01/12 10:58:24;;;;;;;11.93;7.93;;;2.50;49.60;;;;;;4990342;28;20193;-84
2024/01/12 11:00:50;;;;;;;16.00;9.13;;;2.40;49.50;;;;;;5004368;28;20625;-85
2024/01/12 11:03:15;;;;;;;13.33;8.37;;;2.40;49.70;;;;;;5009774;28;20249;-84
2024/01/12 11:05:43;;;;;;;13.37;8.50;;;2.40;49.50;;;;;;5008637;28;20172;-85
2024/01/12 11:08:11;;;;;;;17.97;8.90;;;2.40;49.70;;;;;;5004417;28;20221;-85
2024/01/12 11:10:42;;;;;;;12.43;8.10;;;2.40;49.70;;;;;;4990155;28;20239;-84
2024/01/12 11:13:13;;;;;;;13.67;7.80;;;2.40;49.70;;;;;;4987954;28;20194;-83
2024/01/12 11:15:40;;;;;;;15.40;9.23;;;2.30;49.40;;;;;;4989738;28;20809;-85
2024/01/12 11:18:07;;;;;;;13.27;8.27;;;2.30;49.50;;;;;;4990537;28;20175;-84
2024/01/12 11:20:33;;;;;;;12.40;8.00;;;2.30;49.60;;;;;;5004511;28;20197;-84
2024/01/12 11:22:59;;;;;;;17.13;8.27;;;2.30;49.80;;;;;;4990618;28;20186;-85
2024/01/12 11:25:25;;;;;;;15.67;8.67;;;2.40;49.80;;;;;;4988474;28;20186;-85
2024/01/12 11:27:51;;;;;;;13.53;8.10;;;2.40;49.80;;;;;;4988562;28;20317;-85
2024/01/12 11:30:21;;;;;;;15.30;8.50;;;2.30;49.20;;;;;;4988926;28;20205;-83
2024/01/12 11:32:47;;;;;;;15.10;8.57;;;2.30;49.30;;;;;;4989809;28;20178;-85
2024/01/12 11:35:13;;;;;;;16.90;8.93;;;2.30;49.30;;;;;;4989358;28;20213;-85
2024/01/12 11:37:44;;;;;;;14.87;8.23;;;2.30;49.60;;;;;;5006402;28;20190;-85
2024/01/12 11:40:13;;;;;;;14.57;8.00;;;2.40;49.80;;;;;;5004174;28;20197;-87
2024/01/12 11:42:39;;;;;;;13.83;7.60;;;2.40;49.80;;;;;;5004277;28;20223;-87
2024/01/12 11:45:10;;;;;;;13.13;8.03;;;2.50;49.80;;;;;;4990258;28;20268;-87
2024/01/12 11:47:41;;;;;;;17.40;8.27;;;2.50;49.60;;;;;;4990871;28;20203;-85
2024/01/12 11:50:08;;;;;;;12.23;7.37;;;2.60;49.50;;;;;;4993069;28;20179;-87
2024/01/12 11:52:36;;;;;;;15.43;8.77;;;2.60;49.50;;;;;;5003379;28;20174;-87
2024/01/12 11:55:03;;;;;;;14.07;9.10;;;2.50;48.70;;;;;;4986148;28;20190;-85
2024/01/12 11:57:29;;;;;;;14.37;8.27;;;2.50;49.10;;;;;;5000067;28;20281;-84
2024/01/12 11:59:55;;;;;;;12.73;7.77;;;2.60;49.40;;;;;;5004116;28;20813;-84
2024/01/12 12:02:22;;;;;;;13.47;7.57;;;2.70;49.20;;;;;;4991620;28;20544;-85
2024/01/12 12:04:48;;;;;;;12.83;7.97;;;2.70;49.10;;;;;;5005337;28;20189;-85
2024/01/12 12:07:14;;;;;;;12.43;7.20;;;2.80;49.10;;;;;;5000350;28;20249;-86
2024/01/12 12:09:40;;;;;;;11.17;6.57;;;2.90;49.10;;;;;;5004891;28;20198;-84
2024/01/12 12:12:08;;;;;;;12.33;6.97;;;2.90;48.80;;;;;;4995450;28;20189;-85
2024/01/12 12:14:34;;;;;;;12.63;6.30;;;3.00;48.80;;;;;;5010591;28;20236;-87
2024/01/12 12:16:59;;;;;;;8.73;5.60;;;3.00;48.70;;;;;;4993564;28;20190;-86
2024/01/12 12:19:25;;;;;;;7.87;5.17;;;3.10;48.40;;;;;;4993651;28;20217;-85
2024/01/12 12:21:51;;;;;;;9.97;5.77;;;3.10;47.80;;;;;;5009092;28;20697;-85
2024/01/12 12:24:16;;;;;;;8.30;4.83;;;3.10;47.50;;;;;;5010019;28;20218;-85
2024/01/12 12:26:43;;;;;;;12.87;5.30;;;3.00;47.30;;;;;;5010565;28;20173;-85
2024/01/12 12:29:10;;;;;;;12.60;5.57;;;3.10;47.60;;;;;;4992626;28;20275;-85
2024/01/12 12:31:42;;;;;;;7.90;5.30;;;3.10;47.30;;;;;;4989917;28;20190;-85
2024/01/12 12:34:08;;;;;;;8.20;4.60;;;3.10;47.00;;;;;;4988674;28;20194;-86
2024/01/12 12:36:34;;;;;;;10.10;5.53;;;3.10;46.90;;;;;;4990332;28;20844;-87